Città:
 IT 
 EN 
 FR 
 DE 
 ES 

Dati meteo attuali Milano

Datameteo.com - Informazione e servizi avanzati per la meteorologia,la nautica e la protezione civile
Milano / Linate, Italy
Alba: 5:16 AM UTC1
Tramonto: 7:38 PM UTC1
 Lat: 45.42N, Lon: 9.27E
ICAO Used: LIML
Condizioni Meteo Attuali Aggiornate: 10.08.2020 alle 04:20 UTC
Sereno
Sereno
Sereno
Temp: 23°C
Umidita': 78%
Direz/Vel. Vento: NNW 2 / KT raffiche
Pressione: 1015 hPa
Punto di rugiada: 19°C
Temperatura percepita: 23°C
Visibilitą: >10 KM (ottima)
Temperatura percepita in
presenza di vento (Wind Chill)
:
N/D
T. max (ultime 24 ore): 25°C
T. min (ultime 24 ore): 22°C


METAR ORIGINALE
LIML 100420Z AUTO 34002KT 9999 NCD 23/19 Q1015



[ Indietro ]


Elaborazione dati by Datameteo.com - Lrc srl Copyright ©, All rights reserved.
Visualizza la versione web
©2010 Datameteo.com
weather mobile,mobile weather,meteo mobile,mobile meteo,meteo sul telefonino datameteo.com